KPWA/PWA METAR and TAF weather

Enter ICAO airport designator
Station Type Date Time Source
KPWA METAR 2019/04/21 21:53 UTC NOAA

KPWA 212153Z 20022G30KT 10SM CLR 28/14 A2978 RMK AO2 PK WND 18031/2104 SLP069 T02780139


Station Type Date Time Source
KPWA Decoded METAR 2019/04/21 21:53 UTC NOAA

WILEY POST, OK, United States (KPWA) 35-32N 97-39W 397M
Apr 21, 2019 - 05:53 PM EDT / 2019.04.21 2153 UTC
Wind: from the SSW (200 degrees) at 25 MPH (22 KT) gusting to 35 MPH (30 KT):0
Visibility: 10 mile(s):0
Sky conditions: clear
Temperature: 82.0 F (27.8 C)
Dew Point: 57.0 F (13.9 C)
Relative Humidity: 42%
Pressure (altimeter): 29.78 in. Hg (1008 hPa)
ob: KPWA 212153Z 20022G30KT 10SM CLR 28/14 A2978 RMK AO2 PK WND 18031/2104 SLP069 T02780139
cycle: 22

Station Type Date Time Source
KPWA TAF UTC NOAA

Error!

Example: see airport list